sensor_id;sensor_type;location;lat;lon;timestamp;P1;durP1;ratioP1;P2;durP2;ratioP2
29908;SDS011;36247;51.952;6.146;2024-01-30T00:01:04;19.08;;;12.32;;
29908;SDS011;36247;51.952;6.146;2024-01-30T00:03:30;20.00;;;12.15;;
29908;SDS011;36247;51.952;6.146;2024-01-30T00:05:55;17.67;;;13.05;;
29908;SDS011;36247;51.952;6.146;2024-01-30T00:08:21;19.48;;;12.25;;
29908;SDS011;36247;51.952;6.146;2024-01-30T00:10:46;19.85;;;12.98;;
29908;SDS011;36247;51.952;6.146;2024-01-30T00:13:12;20.30;;;12.50;;
29908;SDS011;36247;51.952;6.146;2024-01-30T00:15:39;18.05;;;12.73;;
29908;SDS011;36247;51.952;6.146;2024-01-30T00:18:04;17.70;;;12.48;;
29908;SDS011;36247;51.952;6.146;2024-01-30T00:20:30;16.65;;;12.20;;
29908;SDS011;36247;51.952;6.146;2024-01-30T00:22:55;21.10;;;12.75;;
29908;SDS011;36247;51.952;6.146;2024-01-30T00:25:21;20.38;;;12.23;;
29908;SDS011;36247;51.952;6.146;2024-01-30T00:27:46;19.92;;;12.00;;
29908;SDS011;36247;51.952;6.146;2024-01-30T00:30:12;21.10;;;13.13;;
29908;SDS011;36247;51.952;6.146;2024-01-30T00:32:37;19.90;;;13.25;;
29908;SDS011;36247;51.952;6.146;2024-01-30T00:35:03;20.35;;;11.57;;
29908;SDS011;36247;51.952;6.146;2024-01-30T00:37:29;16.70;;;12.98;;
29908;SDS011;36247;51.952;6.146;2024-01-30T00:39:54;20.38;;;12.65;;
29908;SDS011;36247;51.952;6.146;2024-01-30T00:42:19;18.48;;;13.65;;
29908;SDS011;36247;51.952;6.146;2024-01-30T00:44:46;19.77;;;12.32;;
29908;SDS011;36247;51.952;6.146;2024-01-30T00:47:11;20.10;;;12.23;;
29908;SDS011;36247;51.952;6.146;2024-01-30T00:49:37;20.63;;;12.70;;
29908;SDS011;36247;51.952;6.146;2024-01-30T00:52:02;18.33;;;11.98;;
29908;SDS011;36247;51.952;6.146;2024-01-30T00:54:29;19.50;;;12.98;;
29908;SDS011;36247;51.952;6.146;2024-01-30T00:56:54;16.02;;;11.73;;
29908;SDS011;36247;51.952;6.146;2024-01-30T00:59:19;18.23;;;11.73;;
29908;SDS011;36247;51.952;6.146;2024-01-30T01:01:45;24.98;;;12.13;;
29908;SDS011;36247;51.952;6.146;2024-01-30T01:04:10;17.25;;;12.18;;
29908;SDS011;36247;51.952;6.146;2024-01-30T01:06:36;24.73;;;14.77;;
29908;SDS011;36247;51.952;6.146;2024-01-30T01:09:01;19.38;;;12.38;;
29908;SDS011;36247;51.952;6.146;2024-01-30T01:11:28;20.95;;;12.75;;
29908;SDS011;36247;51.952;6.146;2024-01-30T01:13:54;22.55;;;12.50;;
29908;SDS011;36247;51.952;6.146;2024-01-30T01:16:19;18.58;;;12.82;;
29908;SDS011;36247;51.952;6.146;2024-01-30T01:18:45;17.90;;;11.77;;
29908;SDS011;36247;51.952;6.146;2024-01-30T01:21:10;18.80;;;11.55;;
29908;SDS011;36247;51.952;6.146;2024-01-30T01:23:36;15.05;;;11.85;;
29908;SDS011;36247;51.952;6.146;2024-01-30T01:26:01;16.98;;;11.45;;
29908;SDS011;36247;51.952;6.146;2024-01-30T01:28:27;20.00;;;11.95;;
29908;SDS011;36247;51.952;6.146;2024-01-30T01:30:53;16.70;;;12.60;;
29908;SDS011;36247;51.952;6.146;2024-01-30T01:33:18;16.52;;;12.63;;
29908;SDS011;36247;51.952;6.146;2024-01-30T01:35:43;18.60;;;13.15;;
29908;SDS011;36247;51.952;6.146;2024-01-30T01:38:09;19.55;;;12.15;;
29908;SDS011;36247;51.952;6.146;2024-01-30T01:40:34;20.20;;;12.32;;
29908;SDS011;36247;51.952;6.146;2024-01-30T01:43:02;17.45;;;12.90;;
29908;SDS011;36247;51.952;6.146;2024-01-30T01:45:28;17.38;;;12.57;;
29908;SDS011;36247;51.952;6.146;2024-01-30T01:47:54;23.02;;;12.18;;
29908;SDS011;36247;51.952;6.146;2024-01-30T01:50:20;18.13;;;12.82;;
29908;SDS011;36247;51.952;6.146;2024-01-30T01:52:49;20.10;;;12.18;;
29908;SDS011;36247;51.952;6.146;2024-01-30T01:55:16;19.63;;;13.18;;
29908;SDS011;36247;51.952;6.146;2024-01-30T01:57:47;17.42;;;12.63;;
29908;SDS011;36247;51.952;6.146;2024-01-30T02:00:12;22.45;;;12.45;;
29908;SDS011;36247;51.952;6.146;2024-01-30T02:02:39;17.73;;;11.35;;
29908;SDS011;36247;51.952;6.146;2024-01-30T02:05:05;19.35;;;12.02;;
29908;SDS011;36247;51.952;6.146;2024-01-30T02:07:31;17.05;;;12.85;;
29908;SDS011;36247;51.952;6.146;2024-01-30T02:09:56;20.83;;;12.10;;
29908;SDS011;36247;51.952;6.146;2024-01-30T02:12:22;19.58;;;13.23;;
29908;SDS011;36247;51.952;6.146;2024-01-30T02:14:48;19.33;;;12.43;;
29908;SDS011;36247;51.952;6.146;2024-01-30T02:17:14;24.50;;;12.98;;
29908;SDS011;36247;51.952;6.146;2024-01-30T02:19:40;22.60;;;13.48;;
29908;SDS011;36247;51.952;6.146;2024-01-30T02:22:06;22.30;;;12.93;;
29908;SDS011;36247;51.952;6.146;2024-01-30T02:24:33;18.13;;;12.10;;
29908;SDS011;36247;51.952;6.146;2024-01-30T02:26:58;21.70;;;12.55;;
29908;SDS011;36247;51.952;6.146;2024-01-30T02:29:24;18.35;;;11.88;;
29908;SDS011;36247;51.952;6.146;2024-01-30T02:31:49;19.35;;;12.80;;
29908;SDS011;36247;51.952;6.146;2024-01-30T02:34:15;19.48;;;12.20;;
29908;SDS011;36247;51.952;6.146;2024-01-30T02:36:43;18.98;;;12.93;;
29908;SDS011;36247;51.952;6.146;2024-01-30T02:39:09;20.63;;;12.63;;
29908;SDS011;36247;51.952;6.146;2024-01-30T02:41:35;19.27;;;12.52;;
29908;SDS011;36247;51.952;6.146;2024-01-30T02:44:01;18.17;;;12.32;;
29908;SDS011;36247;51.952;6.146;2024-01-30T02:46:28;18.67;;;12.70;;
29908;SDS011;36247;51.952;6.146;2024-01-30T02:48:53;17.77;;;12.65;;
29908;SDS011;36247;51.952;6.146;2024-01-30T02:51:18;20.55;;;12.43;;
29908;SDS011;36247;51.952;6.146;2024-01-30T02:53:44;22.23;;;12.52;;
29908;SDS011;36247;51.952;6.146;2024-01-30T02:56:09;15.52;;;12.07;;
29908;SDS011;36247;51.952;6.146;2024-01-30T02:58:35;18.73;;;12.45;;
29908;SDS011;36247;51.952;6.146;2024-01-30T03:01:02;19.75;;;13.77;;
29908;SDS011;36247;51.952;6.146;2024-01-30T03:03:28;18.05;;;12.27;;
29908;SDS011;36247;51.952;6.146;2024-01-30T03:05:53;20.40;;;12.32;;
29908;SDS011;36247;51.952;6.146;2024-01-30T03:08:19;22.30;;;12.55;;
29908;SDS011;36247;51.952;6.146;2024-01-30T03:10:45;21.75;;;12.85;;
29908;SDS011;36247;51.952;6.146;2024-01-30T03:13:10;16.13;;;12.48;;
29908;SDS011;36247;51.952;6.146;2024-01-30T03:15:36;21.83;;;12.23;;
29908;SDS011;36247;51.952;6.146;2024-01-30T03:18:02;21.17;;;12.85;;
29908;SDS011;36247;51.952;6.146;2024-01-30T03:20:29;22.45;;;13.95;;
29908;SDS011;36247;51.952;6.146;2024-01-30T03:22:55;20.05;;;12.75;;
29908;SDS011;36247;51.952;6.146;2024-01-30T03:25:20;19.38;;;13.25;;
29908;SDS011;36247;51.952;6.146;2024-01-30T03:27:46;21.75;;;12.15;;
29908;SDS011;36247;51.952;6.146;2024-01-30T03:30:11;22.75;;;12.93;;
29908;SDS011;36247;51.952;6.146;2024-01-30T03:32:37;21.95;;;12.77;;
29908;SDS011;36247;51.952;6.146;2024-01-30T03:35:02;18.83;;;13.52;;
29908;SDS011;36247;51.952;6.146;2024-01-30T03:37:31;21.05;;;13.18;;
29908;SDS011;36247;51.952;6.146;2024-01-30T03:39:56;19.52;;;12.07;;
29908;SDS011;36247;51.952;6.146;2024-01-30T03:42:22;21.00;;;12.38;;
29908;SDS011;36247;51.952;6.146;2024-01-30T03:44:47;20.00;;;12.70;;
29908;SDS011;36247;51.952;6.146;2024-01-30T03:47:13;19.02;;;12.93;;
29908;SDS011;36247;51.952;6.146;2024-01-30T03:49:39;19.50;;;13.45;;
29908;SDS011;36247;51.952;6.146;2024-01-30T03:52:05;17.67;;;13.02;;
29908;SDS011;36247;51.952;6.146;2024-01-30T03:54:30;18.08;;;13.25;;
29908;SDS011;36247;51.952;6.146;2024-01-30T03:56:56;17.35;;;11.95;;
29908;SDS011;36247;51.952;6.146;2024-01-30T03:59:21;19.17;;;13.35;;
29908;SDS011;36247;51.952;6.146;2024-01-30T04:01:52;20.88;;;12.77;;
29908;SDS011;36247;51.952;6.146;2024-01-30T04:04:18;20.60;;;13.60;;
29908;SDS011;36247;51.952;6.146;2024-01-30T04:06:44;23.13;;;13.95;;
29908;SDS011;36247;51.952;6.146;2024-01-30T04:09:09;21.48;;;13.95;;
29908;SDS011;36247;51.952;6.146;2024-01-30T04:11:36;21.58;;;13.43;;
29908;SDS011;36247;51.952;6.146;2024-01-30T04:14:01;19.10;;;12.65;;
29908;SDS011;36247;51.952;6.146;2024-01-30T04:16:27;17.15;;;11.70;;
29908;SDS011;36247;51.952;6.146;2024-01-30T04:18:52;22.90;;;13.90;;
29908;SDS011;36247;51.952;6.146;2024-01-30T04:21:18;22.63;;;12.27;;
29908;SDS011;36247;51.952;6.146;2024-01-30T04:23:43;17.02;;;11.93;;
29908;SDS011;36247;51.952;6.146;2024-01-30T04:26:09;22.27;;;12.35;;
29908;SDS011;36247;51.952;6.146;2024-01-30T04:28:34;20.48;;;12.95;;
29908;SDS011;36247;51.952;6.146;2024-01-30T04:31:00;18.85;;;13.13;;
29908;SDS011;36247;51.952;6.146;2024-01-30T04:33:25;20.33;;;12.23;;
29908;SDS011;36247;51.952;6.146;2024-01-30T04:35:51;17.42;;;13.18;;
29908;SDS011;36247;51.952;6.146;2024-01-30T04:38:17;17.65;;;12.35;;
29908;SDS011;36247;51.952;6.146;2024-01-30T04:40:42;20.05;;;12.30;;
29908;SDS011;36247;51.952;6.146;2024-01-30T04:43:08;22.10;;;12.73;;
29908;SDS011;36247;51.952;6.146;2024-01-30T04:45:33;18.65;;;12.18;;
29908;SDS011;36247;51.952;6.146;2024-01-30T04:47:59;19.60;;;11.68;;
29908;SDS011;36247;51.952;6.146;2024-01-30T04:50:24;18.42;;;12.88;;
29908;SDS011;36247;51.952;6.146;2024-01-30T04:52:51;18.98;;;13.15;;
29908;SDS011;36247;51.952;6.146;2024-01-30T04:55:17;19.42;;;13.45;;
29908;SDS011;36247;51.952;6.146;2024-01-30T04:57:43;18.23;;;12.38;;
29908;SDS011;36247;51.952;6.146;2024-01-30T05:00:08;22.23;;;13.43;;
29908;SDS011;36247;51.952;6.146;2024-01-30T05:02:34;23.02;;;12.85;;
29908;SDS011;36247;51.952;6.146;2024-01-30T05:05:00;19.25;;;12.75;;
29908;SDS011;36247;51.952;6.146;2024-01-30T05:07:25;22.95;;;13.25;;
29908;SDS011;36247;51.952;6.146;2024-01-30T05:09:51;20.23;;;12.98;;
29908;SDS011;36247;51.952;6.146;2024-01-30T05:12:17;20.92;;;13.55;;
29908;SDS011;36247;51.952;6.146;2024-01-30T05:14:42;17.50;;;12.65;;
29908;SDS011;36247;51.952;6.146;2024-01-30T05:17:07;22.10;;;12.90;;
29908;SDS011;36247;51.952;6.146;2024-01-30T05:19:35;21.95;;;12.95;;
29908;SDS011;36247;51.952;6.146;2024-01-30T05:22:01;18.92;;;12.88;;
29908;SDS011;36247;51.952;6.146;2024-01-30T05:24:26;18.52;;;12.52;;
29908;SDS011;36247;51.952;6.146;2024-01-30T05:26:51;16.95;;;12.18;;
29908;SDS011;36247;51.952;6.146;2024-01-30T05:29:17;23.10;;;12.60;;
29908;SDS011;36247;51.952;6.146;2024-01-30T05:31:42;15.52;;;11.45;;
29908;SDS011;36247;51.952;6.146;2024-01-30T05:34:08;19.88;;;12.05;;
29908;SDS011;36247;51.952;6.146;2024-01-30T05:36:34;19.13;;;13.45;;
29908;SDS011;36247;51.952;6.146;2024-01-30T05:39:00;15.10;;;11.48;;
29908;SDS011;36247;51.952;6.146;2024-01-30T05:41:25;21.42;;;12.68;;
29908;SDS011;36247;51.952;6.146;2024-01-30T05:43:54;14.90;;;11.27;;
29908;SDS011;36247;51.952;6.146;2024-01-30T05:46:19;18.35;;;11.25;;
29908;SDS011;36247;51.952;6.146;2024-01-30T05:48:45;17.73;;;11.40;;
29908;SDS011;36247;51.952;6.146;2024-01-30T05:51:10;15.77;;;10.45;;
29908;SDS011;36247;51.952;6.146;2024-01-30T05:53:36;17.50;;;10.93;;
29908;SDS011;36247;51.952;6.146;2024-01-30T05:56:01;17.63;;;11.65;;
29908;SDS011;36247;51.952;6.146;2024-01-30T05:58:27;16.60;;;11.15;;
29908;SDS011;36247;51.952;6.146;2024-01-30T06:00:53;19.70;;;10.43;;
29908;SDS011;36247;51.952;6.146;2024-01-30T06:03:18;16.35;;;10.23;;
29908;SDS011;36247;51.952;6.146;2024-01-30T06:05:43;14.80;;;9.50;;
29908;SDS011;36247;51.952;6.146;2024-01-30T06:08:09;13.18;;;10.25;;
29908;SDS011;36247;51.952;6.146;2024-01-30T06:10:34;15.63;;;10.35;;
29908;SDS011;36247;51.952;6.146;2024-01-30T06:13:00;13.82;;;10.02;;
29908;SDS011;36247;51.952;6.146;2024-01-30T06:15:25;19.73;;;10.02;;
29908;SDS011;36247;51.952;6.146;2024-01-30T06:17:51;15.43;;;9.80;;
29908;SDS011;36247;51.952;6.146;2024-01-30T06:20:16;12.52;;;8.73;;
29908;SDS011;36247;51.952;6.146;2024-01-30T06:22:43;14.80;;;9.95;;
29908;SDS011;36247;51.952;6.146;2024-01-30T06:25:08;19.83;;;10.30;;
29908;SDS011;36247;51.952;6.146;2024-01-30T06:27:34;16.60;;;10.43;;
29908;SDS011;36247;51.952;6.146;2024-01-30T06:29:59;15.48;;;10.18;;
29908;SDS011;36247;51.952;6.146;2024-01-30T06:32:25;14.80;;;9.52;;
29908;SDS011;36247;51.952;6.146;2024-01-30T06:34:52;15.80;;;9.65;;
29908;SDS011;36247;51.952;6.146;2024-01-30T06:37:18;17.13;;;10.85;;
29908;SDS011;36247;51.952;6.146;2024-01-30T06:39:43;19.55;;;9.90;;
29908;SDS011;36247;51.952;6.146;2024-01-30T06:42:09;17.98;;;10.90;;
29908;SDS011;36247;51.952;6.146;2024-01-30T06:44:34;14.63;;;9.95;;
29908;SDS011;36247;51.952;6.146;2024-01-30T06:47:00;18.45;;;11.10;;
29908;SDS011;36247;51.952;6.146;2024-01-30T06:49:25;16.98;;;10.75;;
29908;SDS011;36247;51.952;6.146;2024-01-30T06:51:51;14.57;;;9.57;;
29908;SDS011;36247;51.952;6.146;2024-01-30T06:54:16;16.35;;;10.23;;
29908;SDS011;36247;51.952;6.146;2024-01-30T06:56:42;13.55;;;9.85;;
29908;SDS011;36247;51.952;6.146;2024-01-30T06:59:07;14.95;;;9.75;;
29908;SDS011;36247;51.952;6.146;2024-01-30T07:01:33;13.70;;;9.70;;
29908;SDS011;36247;51.952;6.146;2024-01-30T07:03:59;15.07;;;9.93;;
29908;SDS011;36247;51.952;6.146;2024-01-30T07:06:24;13.70;;;10.23;;
29908;SDS011;36247;51.952;6.146;2024-01-30T07:08:50;20.42;;;11.57;;
29908;SDS011;36247;51.952;6.146;2024-01-30T07:11:21;13.15;;;8.75;;
29908;SDS011;36247;51.952;6.146;2024-01-30T07:13:50;14.27;;;9.40;;
29908;SDS011;36247;51.952;6.146;2024-01-30T07:16:16;18.52;;;9.77;;
29908;SDS011;36247;51.952;6.146;2024-01-30T07:18:41;14.57;;;9.20;;
29908;SDS011;36247;51.952;6.146;2024-01-30T07:21:06;12.00;;;8.98;;
29908;SDS011;36247;51.952;6.146;2024-01-30T07:23:32;16.85;;;8.75;;
29908;SDS011;36247;51.952;6.146;2024-01-30T07:26:00;14.88;;;8.93;;
29908;SDS011;36247;51.952;6.146;2024-01-30T07:28:26;20.13;;;9.80;;
29908;SDS011;36247;51.952;6.146;2024-01-30T07:30:51;11.85;;;8.65;;
29908;SDS011;36247;51.952;6.146;2024-01-30T07:33:17;15.00;;;9.65;;
29908;SDS011;36247;51.952;6.146;2024-01-30T07:35:43;15.02;;;9.90;;
29908;SDS011;36247;51.952;6.146;2024-01-30T07:38:08;14.52;;;8.95;;
29908;SDS011;36247;51.952;6.146;2024-01-30T07:40:34;13.60;;;9.02;;
29908;SDS011;36247;51.952;6.146;2024-01-30T07:42:59;16.80;;;9.73;;
29908;SDS011;36247;51.952;6.146;2024-01-30T07:45:26;16.77;;;9.30;;
29908;SDS011;36247;51.952;6.146;2024-01-30T07:47:52;14.75;;;9.70;;
29908;SDS011;36247;51.952;6.146;2024-01-30T07:50:18;13.43;;;9.40;;
29908;SDS011;36247;51.952;6.146;2024-01-30T07:52:44;13.18;;;9.27;;
29908;SDS011;36247;51.952;6.146;2024-01-30T07:55:09;14.50;;;9.15;;
29908;SDS011;36247;51.952;6.146;2024-01-30T07:57:35;14.60;;;10.05;;
29908;SDS011;36247;51.952;6.146;2024-01-30T08:00:04;16.92;;;9.35;;
29908;SDS011;36247;51.952;6.146;2024-01-30T08:02:32;13.63;;;8.27;;
29908;SDS011;36247;51.952;6.146;2024-01-30T08:04:57;14.10;;;8.75;;
29908;SDS011;36247;51.952;6.146;2024-01-30T08:07:23;13.73;;;8.80;;
29908;SDS011;36247;51.952;6.146;2024-01-30T08:09:48;13.30;;;8.90;;
29908;SDS011;36247;51.952;6.146;2024-01-30T08:12:14;14.70;;;9.50;;
29908;SDS011;36247;51.952;6.146;2024-01-30T08:14:39;17.30;;;11.68;;
29908;SDS011;36247;51.952;6.146;2024-01-30T08:17:06;27.33;;;17.88;;
29908;SDS011;36247;51.952;6.146;2024-01-30T08:19:32;27.38;;;16.45;;
29908;SDS011;36247;51.952;6.146;2024-01-30T08:21:58;16.02;;;11.50;;
29908;SDS011;36247;51.952;6.146;2024-01-30T08:24:23;15.32;;;11.07;;
29908;SDS011;36247;51.952;6.146;2024-01-30T08:26:49;13.98;;;9.98;;
29908;SDS011;36247;51.952;6.146;2024-01-30T08:29:14;17.77;;;10.45;;
29908;SDS011;36247;51.952;6.146;2024-01-30T08:31:40;15.40;;;10.02;;
29908;SDS011;36247;51.952;6.146;2024-01-30T08:34:05;15.85;;;10.10;;
29908;SDS011;36247;51.952;6.146;2024-01-30T08:36:31;14.27;;;10.13;;
29908;SDS011;36247;51.952;6.146;2024-01-30T08:38:56;14.05;;;10.23;;
29908;SDS011;36247;51.952;6.146;2024-01-30T08:41:22;18.40;;;9.77;;
29908;SDS011;36247;51.952;6.146;2024-01-30T08:43:48;12.50;;;9.57;;
29908;SDS011;36247;51.952;6.146;2024-01-30T08:46:16;16.70;;;9.30;;
29908;SDS011;36247;51.952;6.146;2024-01-30T08:48:44;18.50;;;10.27;;
29908;SDS011;36247;51.952;6.146;2024-01-30T08:51:10;14.18;;;10.65;;
29908;SDS011;36247;51.952;6.146;2024-01-30T08:53:36;13.48;;;9.77;;
29908;SDS011;36247;51.952;6.146;2024-01-30T08:56:02;16.70;;;10.10;;
29908;SDS011;36247;51.952;6.146;2024-01-30T08:58:28;15.60;;;9.82;;
29908;SDS011;36247;51.952;6.146;2024-01-30T09:00:53;13.48;;;9.68;;
29908;SDS011;36247;51.952;6.146;2024-01-30T09:03:19;16.67;;;11.05;;
29908;SDS011;36247;51.952;6.146;2024-01-30T09:05:44;17.10;;;12.30;;
29908;SDS011;36247;51.952;6.146;2024-01-30T09:08:10;18.02;;;11.93;;
29908;SDS011;36247;51.952;6.146;2024-01-30T09:10:35;15.00;;;10.02;;
29908;SDS011;36247;51.952;6.146;2024-01-30T09:13:01;18.33;;;11.20;;
29908;SDS011;36247;51.952;6.146;2024-01-30T09:15:26;16.13;;;11.52;;
29908;SDS011;36247;51.952;6.146;2024-01-30T09:17:52;19.08;;;11.23;;
29908;SDS011;36247;51.952;6.146;2024-01-30T09:20:17;19.17;;;11.38;;
29908;SDS011;36247;51.952;6.146;2024-01-30T09:22:42;18.20;;;11.80;;
29908;SDS011;36247;51.952;6.146;2024-01-30T09:25:09;19.10;;;12.32;;
29908;SDS011;36247;51.952;6.146;2024-01-30T09:27:34;14.70;;;11.52;;
29908;SDS011;36247;51.952;6.146;2024-01-30T09:30:00;17.85;;;11.80;;
29908;SDS011;36247;51.952;6.146;2024-01-30T09:32:25;18.20;;;11.57;;
29908;SDS011;36247;51.952;6.146;2024-01-30T09:34:51;14.70;;;10.27;;
29908;SDS011;36247;51.952;6.146;2024-01-30T09:37:17;19.45;;;10.60;;
29908;SDS011;36247;51.952;6.146;2024-01-30T09:39:43;19.10;;;11.02;;
29908;SDS011;36247;51.952;6.146;2024-01-30T09:42:14;17.85;;;9.90;;
29908;SDS011;36247;51.952;6.146;2024-01-30T09:47:08;15.13;;;9.15;;
29908;SDS011;36247;51.952;6.146;2024-01-30T09:49:33;15.70;;;10.50;;
29908;SDS011;36247;51.952;6.146;2024-01-30T09:52:01;20.65;;;10.18;;
29908;SDS011;36247;51.952;6.146;2024-01-30T09:54:29;17.48;;;10.38;;
29908;SDS011;36247;51.952;6.146;2024-01-30T09:56:56;16.33;;;10.48;;
29908;SDS011;36247;51.952;6.146;2024-01-30T09:59:21;14.13;;;9.77;;
29908;SDS011;36247;51.952;6.146;2024-01-30T10:01:47;14.80;;;10.68;;
29908;SDS011;36247;51.952;6.146;2024-01-30T10:04:13;13.70;;;9.82;;
29908;SDS011;36247;51.952;6.146;2024-01-30T10:06:39;17.35;;;10.13;;
29908;SDS011;36247;51.952;6.146;2024-01-30T10:09:05;15.45;;;9.73;;
29908;SDS011;36247;51.952;6.146;2024-01-30T10:11:30;17.52;;;9.55;;
29908;SDS011;36247;51.952;6.146;2024-01-30T10:13:56;14.27;;;9.05;;
29908;SDS011;36247;51.952;6.146;2024-01-30T10:16:21;13.55;;;8.77;;
29908;SDS011;36247;51.952;6.146;2024-01-30T10:18:47;14.82;;;9.68;;
29908;SDS011;36247;51.952;6.146;2024-01-30T10:21:12;12.73;;;9.15;;
29908;SDS011;36247;51.952;6.146;2024-01-30T10:23:38;15.82;;;9.52;;
29908;SDS011;36247;51.952;6.146;2024-01-30T10:26:04;16.15;;;9.30;;
29908;SDS011;36247;51.952;6.146;2024-01-30T10:28:29;14.65;;;9.75;;
29908;SDS011;36247;51.952;6.146;2024-01-30T10:31:02;15.32;;;9.70;;
29908;SDS011;36247;51.952;6.146;2024-01-30T10:33:30;18.13;;;9.95;;
29908;SDS011;36247;51.952;6.146;2024-01-30T10:36:03;16.67;;;10.13;;
29908;SDS011;36247;51.952;6.146;2024-01-30T10:38:29;19.08;;;10.38;;
29908;SDS011;36247;51.952;6.146;2024-01-30T10:40:56;13.23;;;9.98;;
29908;SDS011;36247;51.952;6.146;2024-01-30T10:43:22;20.13;;;10.70;;
29908;SDS011;36247;51.952;6.146;2024-01-30T10:48:26;23.02;;;10.70;;
29908;SDS011;36247;51.952;6.146;2024-01-30T10:50:55;22.05;;;10.32;;
29908;SDS011;36247;51.952;6.146;2024-01-30T10:53:23;18.02;;;10.88;;
29908;SDS011;36247;51.952;6.146;2024-01-30T10:55:50;18.60;;;10.43;;
29908;SDS011;36247;51.952;6.146;2024-01-30T10:58:17;20.60;;;10.80;;
29908;SDS011;36247;51.952;6.146;2024-01-30T11:00:44;15.75;;;10.50;;
29908;SDS011;36247;51.952;6.146;2024-01-30T11:03:10;15.20;;;10.10;;
29908;SDS011;36247;51.952;6.146;2024-01-30T11:05:40;15.07;;;10.30;;
29908;SDS011;36247;51.952;6.146;2024-01-30T11:08:12;16.17;;;11.18;;
29908;SDS011;36247;51.952;6.146;2024-01-30T11:10:48;15.57;;;9.93;;
29908;SDS011;36247;51.952;6.146;2024-01-30T11:13:14;17.48;;;10.65;;
29908;SDS011;36247;51.952;6.146;2024-01-30T11:15:40;18.13;;;11.27;;
29908;SDS011;36247;51.952;6.146;2024-01-30T11:18:05;19.35;;;10.75;;
29908;SDS011;36247;51.952;6.146;2024-01-30T11:20:31;17.13;;;10.90;;
29908;SDS011;36247;51.952;6.146;2024-01-30T11:22:57;14.23;;;10.18;;
29908;SDS011;36247;51.952;6.146;2024-01-30T11:25:25;17.45;;;11.30;;
29908;SDS011;36247;51.952;6.146;2024-01-30T11:27:53;16.02;;;10.20;;
29908;SDS011;36247;51.952;6.146;2024-01-30T11:30:24;18.08;;;11.52;;
29908;SDS011;36247;51.952;6.146;2024-01-30T11:33:11;17.00;;;10.52;;
29908;SDS011;36247;51.952;6.146;2024-01-30T11:35:38;18.15;;;10.07;;
29908;SDS011;36247;51.952;6.146;2024-01-30T11:38:04;20.13;;;11.18;;
29908;SDS011;36247;51.952;6.146;2024-01-30T11:40:31;18.05;;;9.70;;
29908;SDS011;36247;51.952;6.146;2024-01-30T11:42:58;20.92;;;10.93;;
29908;SDS011;36247;51.952;6.146;2024-01-30T11:45:28;15.38;;;10.05;;
29908;SDS011;36247;51.952;6.146;2024-01-30T11:47:53;14.52;;;9.52;;
29908;SDS011;36247;51.952;6.146;2024-01-30T11:50:19;10.57;;;8.90;;
29908;SDS011;36247;51.952;6.146;2024-01-30T11:52:45;15.10;;;9.05;;
29908;SDS011;36247;51.952;6.146;2024-01-30T11:55:11;13.00;;;9.40;;
29908;SDS011;36247;51.952;6.146;2024-01-30T11:57:38;13.30;;;8.20;;
29908;SDS011;36247;51.952;6.146;2024-01-30T12:00:04;14.80;;;9.10;;
29908;SDS011;36247;51.952;6.146;2024-01-30T12:02:35;16.73;;;9.30;;
29908;SDS011;36247;51.952;6.146;2024-01-30T12:05:04;16.00;;;9.13;;
29908;SDS011;36247;51.952;6.146;2024-01-30T12:07:30;13.02;;;8.73;;
29908;SDS011;36247;51.952;6.146;2024-01-30T12:09:56;14.48;;;9.30;;
29908;SDS011;36247;51.952;6.146;2024-01-30T12:12:25;13.77;;;8.60;;
29908;SDS011;36247;51.952;6.146;2024-01-30T12:14:52;14.65;;;8.68;;
29908;SDS011;36247;51.952;6.146;2024-01-30T12:22:29;13.65;;;7.20;;
29908;SDS011;36247;51.952;6.146;2024-01-30T12:24:55;12.82;;;7.57;;
29908;SDS011;36247;51.952;6.146;2024-01-30T12:27:20;12.15;;;7.20;;
29908;SDS011;36247;51.952;6.146;2024-01-30T12:29:46;11.38;;;7.55;;
29908;SDS011;36247;51.952;6.146;2024-01-30T12:32:15;11.60;;;6.78;;
29908;SDS011;36247;51.952;6.146;2024-01-30T12:34:41;10.68;;;6.75;;
29908;SDS011;36247;51.952;6.146;2024-01-30T12:37:07;11.10;;;6.60;;
29908;SDS011;36247;51.952;6.146;2024-01-30T12:39:34;12.40;;;6.22;;
29908;SDS011;36247;51.952;6.146;2024-01-30T12:42:00;13.55;;;5.93;;
29908;SDS011;36247;51.952;6.146;2024-01-30T12:44:26;10.93;;;6.05;;
29908;SDS011;36247;51.952;6.146;2024-01-30T12:46:52;10.90;;;6.47;;
29908;SDS011;36247;51.952;6.146;2024-01-30T12:49:17;12.82;;;7.25;;
29908;SDS011;36247;51.952;6.146;2024-01-30T12:51:43;11.90;;;7.95;;
29908;SDS011;36247;51.952;6.146;2024-01-30T12:54:08;11.07;;;7.28;;
29908;SDS011;36247;51.952;6.146;2024-01-30T12:56:34;11.65;;;6.45;;
29908;SDS011;36247;51.952;6.146;2024-01-30T12:58:59;13.73;;;6.40;;
29908;SDS011;36247;51.952;6.146;2024-01-30T13:01:25;14.18;;;6.15;;
29908;SDS011;36247;51.952;6.146;2024-01-30T13:03:50;13.82;;;6.25;;
29908;SDS011;36247;51.952;6.146;2024-01-30T13:06:16;11.00;;;5.68;;
29908;SDS011;36247;51.952;6.146;2024-01-30T13:08:41;10.40;;;4.95;;
29908;SDS011;36247;51.952;6.146;2024-01-30T13:11:07;11.52;;;4.68;;
29908;SDS011;36247;51.952;6.146;2024-01-30T13:13:32;12.57;;;5.60;;
29908;SDS011;36247;51.952;6.146;2024-01-30T13:15:58;11.90;;;4.80;;
29908;SDS011;36247;51.952;6.146;2024-01-30T13:18:23;9.90;;;5.05;;
29908;SDS011;36247;51.952;6.146;2024-01-30T13:20:49;8.48;;;4.47;;
29908;SDS011;36247;51.952;6.146;2024-01-30T13:23:14;15.68;;;4.18;;
29908;SDS011;36247;51.952;6.146;2024-01-30T13:25:40;10.30;;;4.53;;
29908;SDS011;36247;51.952;6.146;2024-01-30T13:28:05;6.00;;;3.83;;
29908;SDS011;36247;51.952;6.146;2024-01-30T13:30:31;7.32;;;3.58;;
29908;SDS011;36247;51.952;6.146;2024-01-30T13:32:56;8.93;;;3.80;;
29908;SDS011;36247;51.952;6.146;2024-01-30T13:35:22;9.40;;;3.75;;
29908;SDS011;36247;51.952;6.146;2024-01-30T13:37:47;6.05;;;3.45;;
29908;SDS011;36247;51.952;6.146;2024-01-30T13:40:16;10.00;;;3.00;;
29908;SDS011;36247;51.952;6.146;2024-01-30T13:42:41;7.13;;;2.78;;
29908;SDS011;36247;51.952;6.146;2024-01-30T13:45:07;6.78;;;2.80;;
29908;SDS011;36247;51.952;6.146;2024-01-30T13:47:34;4.13;;;2.45;;
29908;SDS011;36247;51.952;6.146;2024-01-30T13:50:00;5.50;;;2.90;;
29908;SDS011;36247;51.952;6.146;2024-01-30T13:52:28;3.95;;;2.65;;
29908;SDS011;36247;51.952;6.146;2024-01-30T13:54:53;7.47;;;2.58;;
29908;SDS011;36247;51.952;6.146;2024-01-30T13:57:19;3.90;;;2.15;;
29908;SDS011;36247;51.952;6.146;2024-01-30T13:59:44;4.72;;;1.83;;
29908;SDS011;36247;51.952;6.146;2024-01-30T14:02:10;4.13;;;1.90;;
29908;SDS011;36247;51.952;6.146;2024-01-30T14:04:35;3.20;;;2.03;;
29908;SDS011;36247;51.952;6.146;2024-01-30T14:07:02;5.10;;;1.92;;
29908;SDS011;36247;51.952;6.146;2024-01-30T14:09:29;3.15;;;1.40;;
29908;SDS011;36247;51.952;6.146;2024-01-30T14:11:54;4.82;;;2.00;;
29908;SDS011;36247;51.952;6.146;2024-01-30T14:14:20;3.90;;;1.27;;
29908;SDS011;36247;51.952;6.146;2024-01-30T14:16:45;6.45;;;2.05;;
29908;SDS011;36247;51.952;6.146;2024-01-30T14:19:11;3.60;;;2.08;;
29908;SDS011;36247;51.952;6.146;2024-01-30T14:21:36;2.33;;;1.40;;
29908;SDS011;36247;51.952;6.146;2024-01-30T14:24:02;6.75;;;2.05;;
29908;SDS011;36247;51.952;6.146;2024-01-30T14:26:28;4.28;;;2.25;;
29908;SDS011;36247;51.952;6.146;2024-01-30T14:28:53;7.95;;;3.35;;
29908;SDS011;36247;51.952;6.146;2024-01-30T14:31:20;12.23;;;3.90;;